• Join FlightAware (Why Join?)
  • Login
  • US Flag 
02:08AM EDT


 

Airport Tracker/Info


-or-


 

Live Flight TrackerFlight Track Log ✈ FLG3729 ✈ 09-Jun-2014 ✈ KDTW - KMEM

Flight Track Log - Related Links

Times and Time Zones

All times are in EDT time to prevent confusion due to time zone crossing. See the FLG3729 flight status page for this flight to view local times or setup timezone preferences in your user account.

Time Position Orientation Groundspeed Altitude Reporting Facility
EDT Latitude Longitude Course Direction KTS MPH feet Rate Location/Type
10:24AM 42.2328 -83.3483 359° North 169 194 1,300  Level Cleveland Center
10:25AM 42.2786 -83.3492 359° North 211 243 3,000 1,800 Climbing Cleveland Center
10:26AM 42.3283 -83.3844 332° Northwest 272 313 4,600 2,280 Climbing Cleveland Center
10:27AM 42.3775 -83.4789 305° West 294 338 7,700 2,580 Climbing Cleveland Center
10:28AM 42.3358 -83.5561 234° Southwest 286 329 10,300 1,860 Climbing Cleveland Center
10:29AM 42.2631 -83.6197 213° Southwest 331 381 11,600 1,980 Climbing Cleveland Center
10:30AM 42.1467 -83.6131 178° South 356 410 14,400 2,400 Climbing Cleveland Center
10:31AM 42.0478 -83.6031 176° South 358 412 16,600 2,100 Climbing Cleveland Center
10:32AM 41.9461 -83.5942 176° South 364 419 18,800 1,740 Climbing Cleveland Center
10:33AM 41.8425 -83.5844 176° South 370 426 20,300 1,500 Climbing Cleveland Center
10:34AM 41.7372 -83.5950 184° South 382 440 22,000 1,740 Climbing Cleveland Center
10:35AM 41.6228 -83.6697 206° Southwest 382 440 23,900 1,500 Climbing Cleveland Center
10:36AM 41.5242 -83.7328 206° Southwest 391 450 25,200 1,440 Climbing Cleveland Center
10:37AM 41.4239 -83.7969 206° Southwest 393 452 26,900 1,200 Climbing Cleveland Center
10:38AM 41.3239 -83.8608 206° Southwest 397 457 27,800 960 Climbing Cleveland Center
10:39AM 41.2053 -83.9381 206° Southwest 411 473 28,900 1,500 Climbing Cleveland Center
10:40AM 41.1039 -84.0017 205° Southwest 405 466 30,900 1,500 Climbing Cleveland Center
10:41AM 41.0050 -84.0636 205° Southwest 396 456 32,000 480 Climbing Cleveland Center
10:42AM 40.9036 -84.1283 206° Southwest 399 459 32,000  Level Cleveland Center
10:43AM 40.8111 -84.1881 206° Southwest 401 461 32,000  Level Indianapolis Center
10:44AM 40.7103 -84.2506 205° Southwest 402 463 32,000  Level Indianapolis Center
10:45AM 40.6089 -84.3136 205° Southwest 402 463 32,000  Level Indianapolis Center
10:46AM 40.5089 -84.3767 206° Southwest 402 463 32,000  Level Indianapolis Center
10:47AM 40.3883 -84.4508 205° Southwest 402 463 32,000  Level Indianapolis Center
10:48AM 40.2892 -84.5131 206° Southwest 401 461 32,000  Level Indianapolis Center
10:49AM 40.1897 -84.5739 205° Southwest 398 458 32,000  Level Indianapolis Center
10:51AM 40.0914 -84.6344 205° Southwest 397 457 32,000  Level Indianapolis Center
10:52AM 39.9944 -84.6942 205° Southwest 390 449 32,000  Level Indianapolis Center
10:53AM 39.8992 -84.7528 205° Southwest 385 443 32,000  Level Indianapolis Center
10:54AM 39.7808 -84.8244 205° Southwest 388 447 32,000  Level Indianapolis Center
10:55AM 39.7061 -84.9231 225° Southwest 390 449 32,000  Level Indianapolis Center
10:56AM 39.6406 -85.0306 232° Southwest 385 443 32,000  Level Indianapolis Center
10:58AM 39.5131 -85.2406 232° Southwest 376 433 32,000  Level Indianapolis Center
10:59AM 39.4500 -85.3472 233° Southwest 376 433 32,000  Level Indianapolis Center
11:00AM 39.3728 -85.4731 232° Southwest 376 433 32,000  Level Indianapolis Center
11:01AM 39.3097 -85.5775 232° Southwest 376 433 32,000  Level Indianapolis Center
11:02AM 39.2431 -85.6844 231° Southwest 376 433 32,000  Level Indianapolis Center
11:03AM 39.1769 -85.7914 231° Southwest 376 433 32,000  Level Indianapolis Center
11:04AM 39.1108 -85.8989 232° Southwest 377 434 32,000  Level Indianapolis Center
11:05AM 39.0447 -86.0072 232° Southwest 381 438 32,000  Level Indianapolis Center
11:06AM 38.9656 -86.1361 232° Southwest 381 438 32,000  Level Indianapolis Center
11:07AM 38.8989 -86.2425 231° Southwest 382 440 32,000  Level Indianapolis Center
11:08AM 38.8339 -86.3481 232° Southwest 380 437 32,000  Level Indianapolis Center
11:09AM 38.7678 -86.4525 231° Southwest 380 437 32,000  Level Indianapolis Center
11:10AM 38.7031 -86.5561 231° Southwest 376 433 32,000  Level Indianapolis Center
11:11AM 38.6375 -86.6592 231° Southwest 374 430 32,000  Level Indianapolis Center
11:12AM 38.5706 -86.7639 231° Southwest 375 432 32,000  Level Indianapolis Center
11:13AM 38.4892 -86.8922 231° Southwest 383 441 32,000  Level Indianapolis Center
11:14AM 38.4219 -86.9992 231° Southwest 384 442 32,000  Level Indianapolis Center
11:15AM 38.3508 -87.1100 231° Southwest 387 445 32,000  Level Indianapolis Center
11:16AM 38.2819 -87.2192 231° Southwest 388 447 32,000  Level Indianapolis Center
11:17AM 38.2208 -87.3125 230° Southwest 388 447 32,000  Level Indianapolis Center
11:18AM 38.1378 -87.4408 231° Southwest 388 447 32,000  Level Indianapolis Center
11:19AM 38.0675 -87.5481 230° Southwest 391 450 32,000  Level Indianapolis Center
11:20AM 37.9967 -87.6583 231° Southwest 397 457 32,000  Level Indianapolis Center
11:21AM 37.9208 -87.7656 228° Southwest 403 464 32,000  Level Indianapolis Center
11:22AM 37.8158 -87.8308 206° Southwest 413 475 32,000  Level Indianapolis Center
11:24AM 37.7008 -87.9025 206° Southwest 413 475 32,000  Level Indianapolis Center
11:25AM 37.5967 -87.9658 206° Southwest 413 475 32,000  Level Indianapolis Center
11:26AM 37.4928 -88.0297 206° Southwest 413 475 32,000  Level Indianapolis Center
11:27AM 37.3858 -88.0939 205° Southwest 418 481 32,000  Level Indianapolis Center
11:28AM 37.2769 -88.1594 206° Southwest 425 489 32,000  Level Indianapolis Center
11:29AM 37.1681 -88.2244 205° Southwest 426 490 32,000  Level Indianapolis Center
11:30AM 37.0586 -88.2919 206° Southwest 431 496 32,000  Level Indianapolis Center
11:31AM 36.9481 -88.3569 205° Southwest 432 497 32,000  Level Indianapolis Center
11:32AM 36.8211 -88.4336 206° Southwest 432 497 32,000 -300 Level Indianapolis Center
11:33AM 36.7089 -88.4986 205° Southwest 434 499 31,400 -1,320 Descending Indianapolis Center
11:34AM 36.6000 -88.5633 206° Southwest 434 499 29,400 -1,860 Descending Indianapolis Center
11:35AM 36.4697 -88.6406 205° Southwest 428 493 27,100 -1,740 Descending Memphis Center
11:36AM 36.3636 -88.7014 205° Southwest 423 487 25,400 -1,560 Descending Memphis Center
11:37AM 36.2589 -88.7633 206° Southwest 418 481 24,000 -1,620 Descending Memphis Center
11:38AM 36.1558 -88.8228 205° Southwest 410 472 22,100 -1,860 Descending Memphis Center
11:39AM 36.0583 -88.8792 205° Southwest 393 452 20,200 -2,040 Descending Memphis Center
11:40AM 35.9458 -88.9461 206° Southwest 377 434 18,000 -1,980 Descending Memphis Center
11:41AM 35.8525 -89.0000 205° Southwest 374 430 16,200 -1,800 Descending Memphis Center
11:42AM 35.7608 -89.0525 205° Southwest 366 421 14,400 -1,080 Descending Memphis Center
11:43AM 35.6906 -89.1222 219° Southwest 336 387 14,100 -1,080 Descending Memphis Center
11:44AM 35.6300 -89.2019 227° Southwest 324 373 12,300 -1,740 Descending Memphis Center
11:45AM 35.5700 -89.2803 227° Southwest 322 371 10,600 -1,140 Descending Memphis Center
11:46AM 35.5228 -89.3553 232° Southwest 298 343 10,000 -540 Descending Memphis Center
11:47AM 35.4850 -89.4203 234° Southwest 249 287 9,600 -900 Descending Memphis Center
11:48AM 35.4594 -89.4961 248° West 242 278 8,200 -1,740 Descending Memphis Center
11:49AM 35.4322 -89.5783 248° West 225 259 6,100 -1,560 Descending Memphis Center
11:50AM 35.4083 -89.6444 246° West 219 252 5,100 -540 Descending Memphis Center
11:52AM 35.3869 -89.7089 248° West 210 242 5,100 -300 Level Memphis Center
11:53AM 35.3653 -89.7750 248° West 210 242 4,500 -540 Descending Memphis Center
11:54AM 35.3444 -89.8389 248° West 209 241 4,100 -240 Descending Memphis Center
11:55AM 35.3233 -89.9031 248° West 208 239 4,100 -540 Level Memphis Center
11:56AM 35.2919 -89.9625 237° Southwest 208 239 3,100 -840 Descending Memphis Center
11:57AM 35.2264 -89.9794 192° South 210 242 2,400 -540 Descending Memphis Center
11:58AM 35.1761 -89.9792 180° South 197 227 2,000 -240 Descending Memphis Center
11:59AM 35.1417 -89.9786 179° South 152 175 2,000 -360 Level Memphis Center
12:00PM 35.1053 -89.9775 179° South 136 157 1,300 -660 Descending Memphis Center
12:01PM 35.0672 -89.9761 178° South 135 155 700 -600 Descending Memphis Center
12:03PM 35.0424 -89.9767 180° South  Level Estimated